createdAt,value
2018-09-20T00:01:03.209Z,99.90
2018-09-20T00:03:31.569Z,99.90
2018-09-20T00:05:59.804Z,99.90
2018-09-20T00:08:28.060Z,99.90
2018-09-20T00:10:56.377Z,99.90
2018-09-20T00:13:24.856Z,99.90
2018-09-20T00:15:53.146Z,99.90
2018-09-20T00:18:21.530Z,99.90
2018-09-20T00:20:49.818Z,99.90
2018-09-20T00:23:18.137Z,99.90
2018-09-20T00:25:46.427Z,99.90
2018-09-20T00:28:14.751Z,99.90
2018-09-20T00:30:43.020Z,99.90
2018-09-20T00:33:11.534Z,99.90
2018-09-20T00:35:39.838Z,99.90
2018-09-20T00:38:08.212Z,99.90
2018-09-20T00:40:36.473Z,99.90
2018-09-20T00:43:06.807Z,99.90
2018-09-20T00:45:35.112Z,99.90
2018-09-20T00:48:03.367Z,99.90
2018-09-20T00:50:31.612Z,99.90
2018-09-20T00:53:00.066Z,99.90
2018-09-20T00:55:28.308Z,99.90
2018-09-20T00:57:56.602Z,99.90
2018-09-20T01:00:24.890Z,99.90
2018-09-20T01:02:53.254Z,99.90
2018-09-20T01:05:21.558Z,99.90
2018-09-20T01:07:49.855Z,99.90
2018-09-20T01:10:18.128Z,99.90
2018-09-20T01:12:46.542Z,99.90
2018-09-20T01:15:14.852Z,99.90
2018-09-20T01:17:43.151Z,99.90
2018-09-20T01:20:11.403Z,99.90
2018-09-20T01:22:39.823Z,99.90
2018-09-20T01:25:08.963Z,99.90
2018-09-20T01:27:37.225Z,99.90
2018-09-20T01:30:05.597Z,99.90
2018-09-20T01:32:34.948Z,99.90
2018-09-20T01:35:03.264Z,99.90
2018-09-20T01:37:31.477Z,99.90
2018-09-20T01:39:59.766Z,99.90
2018-09-20T01:42:28.049Z,99.90
2018-09-20T01:44:56.314Z,99.90
2018-09-20T01:47:24.805Z,99.90
2018-09-20T01:49:53.468Z,99.90
2018-09-20T01:52:21.801Z,99.90
2018-09-20T01:54:50.444Z,99.90
2018-09-20T01:57:18.868Z,99.90
2018-09-20T01:59:47.191Z,99.90
2018-09-20T02:02:15.542Z,99.90
2018-09-20T02:04:43.951Z,99.90
2018-09-20T02:07:12.300Z,99.90
2018-09-20T02:09:40.614Z,99.90
2018-09-20T02:12:10.072Z,99.90
2018-09-20T02:14:38.388Z,99.90
2018-09-20T02:17:06.795Z,99.90
2018-09-20T02:19:35.178Z,99.90
2018-09-20T02:22:03.680Z,99.90
2018-09-20T02:24:32.026Z,99.90
2018-09-20T02:27:00.293Z,99.90
2018-09-20T02:29:28.659Z,99.90
2018-09-20T02:31:56.931Z,99.90
2018-09-20T02:34:25.334Z,99.90
2018-09-20T02:36:53.635Z,99.90
2018-09-20T02:39:21.923Z,99.90
2018-09-20T02:41:50.220Z,99.90
2018-09-20T02:44:18.622Z,99.90
2018-09-20T02:46:46.906Z,99.90
2018-09-20T02:49:15.126Z,99.90
2018-09-20T02:51:43.427Z,99.90
2018-09-20T02:54:11.792Z,99.90
2018-09-20T02:56:40.037Z,99.90
2018-09-20T02:59:08.672Z,99.90
2018-09-20T03:01:36.814Z,99.90
2018-09-20T03:04:05.259Z,99.90
2018-09-20T03:06:33.542Z,99.90
2018-09-20T03:09:01.810Z,99.90
2018-09-20T03:11:36.839Z,99.90
2018-09-20T03:14:05.328Z,99.90
2018-09-20T03:16:33.538Z,99.90
2018-09-20T03:19:01.878Z,99.90
2018-09-20T03:21:30.150Z,99.90
2018-09-20T03:23:59.257Z,99.90
2018-09-20T03:26:29.563Z,99.90
2018-09-20T03:28:57.880Z,99.90
2018-09-20T03:31:26.166Z,99.90
2018-09-20T03:33:54.632Z,99.90
2018-09-20T03:36:22.851Z,99.90
2018-09-20T03:38:51.179Z,99.90
2018-09-20T03:41:19.495Z,99.90
2018-09-20T03:43:47.876Z,99.90
2018-09-20T03:46:16.152Z,99.90
2018-09-20T03:48:45.230Z,99.90
2018-09-20T03:51:13.546Z,99.90
2018-09-20T03:53:42.020Z,99.90
2018-09-20T03:56:11.311Z,99.90
2018-09-20T03:58:39.560Z,99.90
2018-09-20T04:01:07.828Z,99.90
2018-09-20T04:03:36.150Z,99.90
2018-09-20T04:06:04.492Z,99.90
2018-09-20T04:08:32.779Z,99.90
2018-09-20T04:11:01.040Z,99.90
2018-09-20T04:13:29.460Z,99.90
2018-09-20T04:15:57.732Z,99.90
2018-09-20T04:18:26.022Z,99.90
2018-09-20T04:20:54.358Z,99.90
2018-09-20T04:23:22.869Z,99.90
2018-09-20T04:25:51.091Z,99.90
2018-09-20T04:28:19.395Z,99.90
2018-09-20T04:30:47.646Z,99.90
2018-09-20T04:33:16.086Z,99.90
2018-09-20T04:35:44.409Z,99.90
2018-09-20T04:38:12.706Z,99.90
2018-09-20T04:40:41.143Z,99.90
2018-09-20T04:43:09.606Z,99.90
2018-09-20T04:45:37.986Z,99.90
2018-09-20T04:48:06.479Z,99.90
2018-09-20T04:50:34.993Z,99.90
2018-09-20T04:53:04.425Z,99.90
2018-09-20T04:55:32.856Z,99.90
2018-09-20T04:58:01.178Z,99.90
2018-09-20T05:00:29.473Z,99.90
2018-09-20T05:02:57.828Z,99.90
2018-09-20T05:05:26.172Z,99.90
2018-09-20T05:07:54.486Z,99.90
2018-09-20T05:10:24.017Z,99.90
2018-09-20T05:12:52.552Z,99.90
2018-09-20T05:15:21.465Z,99.90
2018-09-20T05:17:50.248Z,99.90
2018-09-20T05:20:18.626Z,99.90
2018-09-20T05:22:46.949Z,99.90
2018-09-20T05:25:15.216Z,99.90
2018-09-20T05:27:43.618Z,99.90
2018-09-20T05:30:11.928Z,99.90
2018-09-20T05:32:41.273Z,99.90
2018-09-20T05:35:09.579Z,99.90
2018-09-20T05:37:37.892Z,99.90
2018-09-20T05:40:06.167Z,99.90
2018-09-20T05:42:34.587Z,99.90
2018-09-20T05:45:02.962Z,99.90
2018-09-20T05:47:31.355Z,99.90
2018-09-20T05:49:59.650Z,99.90
2018-09-20T05:52:28.273Z,99.90
2018-09-20T05:54:56.621Z,99.90
2018-09-20T05:57:24.864Z,99.90
2018-09-20T06:02:53.542Z,99.90
2018-09-20T06:05:21.831Z,99.90
2018-09-20T06:07:50.218Z,99.90
2018-09-20T06:10:18.494Z,99.90
2018-09-20T06:12:46.856Z,99.90
2018-09-20T06:15:15.138Z,99.90
2018-09-20T06:17:43.367Z,99.90
2018-09-20T06:20:11.724Z,99.90
2018-09-20T06:22:41.199Z,99.90
2018-09-20T06:25:09.492Z,99.90
2018-09-20T06:27:37.788Z,99.90
2018-09-20T06:30:06.420Z,99.90
2018-09-20T06:32:35.203Z,99.90
2018-09-20T06:35:03.629Z,99.90
2018-09-20T06:37:31.898Z,99.90
2018-09-20T06:40:00.208Z,99.90
2018-09-20T06:42:29.600Z,99.90
2018-09-20T06:44:58.161Z,99.90
2018-09-20T06:47:26.511Z,99.90
2018-09-20T06:49:54.940Z,99.90
2018-09-20T06:52:23.420Z,99.90
2018-09-20T06:54:51.729Z,99.90
2018-09-20T06:57:20.069Z,99.90
2018-09-20T06:59:48.699Z,99.90
2018-09-20T07:02:17.228Z,99.90
2018-09-20T07:04:45.584Z,99.90
2018-09-20T07:07:13.925Z,99.90
2018-09-20T07:09:42.232Z,99.90
2018-09-20T07:12:10.601Z,99.90
2018-09-20T07:14:38.982Z,99.90
2018-09-20T07:17:07.308Z,99.90
2018-09-20T07:19:35.857Z,99.90
2018-09-20T07:22:04.221Z,99.90
2018-09-20T07:24:32.517Z,99.90
2018-09-20T07:27:00.839Z,99.90
2018-09-20T07:29:29.139Z,99.90
2018-09-20T07:31:57.472Z,99.90
2018-09-20T07:34:25.919Z,99.90
2018-09-20T07:36:54.318Z,99.90
2018-09-20T07:39:22.637Z,99.90
2018-09-20T07:41:50.887Z,99.90
2018-09-20T07:44:19.383Z,99.90
2018-09-20T07:46:47.764Z,99.90
2018-09-20T07:49:16.162Z,99.90
2018-09-20T07:51:44.647Z,99.90
2018-09-20T07:54:14.438Z,99.90
2018-09-20T07:56:42.764Z,99.90
2018-09-20T07:59:11.060Z,99.90
2018-09-20T08:01:39.389Z,99.90
2018-09-20T08:04:08.923Z,99.90
2018-09-20T08:06:37.281Z,99.90
2018-09-20T08:09:08.488Z,99.90
2018-09-20T08:11:36.971Z,99.90
2018-09-20T08:14:05.495Z,99.90
2018-09-20T08:16:33.894Z,99.90
2018-09-20T08:19:02.282Z,99.90
2018-09-20T08:21:30.565Z,99.90
2018-09-20T08:23:59.000Z,99.90
2018-09-20T08:26:27.272Z,99.90
2018-09-20T08:28:55.788Z,99.90
2018-09-20T08:31:24.064Z,99.90
2018-09-20T08:33:52.490Z,99.90
2018-09-20T08:36:20.833Z,99.90
2018-09-20T08:38:49.092Z,99.90
2018-09-20T08:41:23.392Z,99.90
2018-09-20T08:43:53.843Z,99.90
2018-09-20T08:46:22.251Z,99.90
2018-09-20T08:48:50.601Z,99.90
2018-09-20T08:51:19.084Z,99.90
2018-09-20T08:53:47.480Z,99.90
2018-09-20T08:56:15.799Z,99.90
2018-09-20T08:58:44.235Z,99.90
2018-09-20T09:01:12.596Z,99.90
2018-09-20T09:03:41.044Z,99.90
2018-09-20T09:06:09.441Z,99.90
2018-09-20T09:08:37.763Z,99.90
2018-09-20T09:11:06.274Z,99.90
2018-09-20T09:15:03.939Z,99.90
2018-09-20T09:17:32.257Z,99.90
2018-09-20T09:20:00.644Z,99.90
2018-09-20T09:22:29.060Z,99.90
2018-09-20T09:24:57.471Z,99.90
2018-09-20T09:27:25.864Z,99.90
2018-09-20T09:29:54.219Z,99.90
2018-09-20T09:32:22.536Z,99.90
2018-09-20T09:34:50.918Z,99.90
2018-09-20T09:37:19.411Z,99.90
2018-09-20T09:39:47.798Z,99.90
2018-09-20T09:42:16.400Z,99.90
2018-09-20T09:44:44.985Z,99.90
2018-09-20T09:47:13.316Z,99.90
2018-09-20T09:49:41.606Z,99.90
2018-09-20T09:52:09.972Z,99.90
2018-09-20T09:54:38.440Z,99.90
2018-09-20T09:57:07.078Z,99.90
2018-09-20T09:59:35.469Z,99.90
2018-09-20T10:02:03.775Z,99.90
2018-09-20T10:04:32.143Z,99.90
2018-09-20T10:07:00.679Z,99.90
2018-09-20T10:09:29.206Z,99.90
2018-09-20T10:11:57.779Z,99.90
2018-09-20T10:14:26.291Z,99.90
2018-09-20T10:16:54.657Z,99.90
2018-09-20T10:19:23.035Z,99.90
2018-09-20T10:21:51.406Z,99.90
2018-09-20T10:24:19.810Z,99.90
2018-09-20T10:26:48.130Z,99.90
2018-09-20T10:29:16.464Z,99.90
2018-09-20T10:31:44.807Z,99.90
2018-09-20T10:34:13.338Z,99.90
2018-09-20T10:36:41.650Z,99.90
2018-09-20T10:39:11.948Z,99.90
2018-09-20T10:41:40.282Z,99.90
2018-09-20T10:44:08.909Z,99.90
2018-09-20T10:46:37.782Z,99.90
2018-09-20T10:49:06.300Z,99.90
2018-09-20T10:51:35.142Z,99.90
2018-09-20T10:54:03.710Z,99.90
2018-09-20T10:56:32.124Z,99.90
2018-09-20T10:59:00.444Z,99.90
2018-09-20T11:01:28.819Z,99.90
2018-09-20T11:03:57.353Z,99.90
2018-09-20T11:06:25.801Z,99.90
2018-09-20T11:08:54.123Z,99.90
2018-09-20T11:11:22.438Z,99.90
2018-09-20T11:13:51.008Z,99.90
2018-09-20T11:16:19.355Z,99.90
2018-09-20T11:18:47.776Z,99.90
2018-09-20T11:21:16.146Z,99.90
2018-09-20T11:23:44.746Z,99.90
2018-09-20T11:26:13.150Z,99.90
2018-09-20T11:28:41.488Z,99.90
2018-09-20T11:31:09.828Z,99.90
2018-09-20T11:33:38.314Z,99.90
2018-09-20T11:36:06.702Z,99.90
2018-09-20T11:38:34.998Z,99.90
2018-09-20T11:41:03.322Z,99.90
2018-09-20T11:43:31.635Z,99.90
2018-09-20T11:46:00.068Z,99.90
2018-09-20T11:48:28.396Z,99.90
2018-09-20T11:50:56.725Z,99.90
2018-09-20T11:53:25.097Z,99.90
2018-09-20T11:55:53.391Z,99.90
2018-09-20T11:58:21.862Z,99.90
2018-09-20T12:00:50.235Z,99.90
2018-09-20T12:03:19.623Z,99.90
2018-09-20T12:05:48.033Z,99.90
2018-09-20T12:08:16.388Z,99.90
2018-09-20T12:10:44.720Z,99.90
2018-09-20T12:13:13.147Z,99.90
2018-09-20T12:15:41.421Z,99.90
2018-09-20T12:18:09.733Z,99.90
2018-09-20T12:20:38.070Z,99.90
2018-09-20T12:23:06.520Z,99.90
2018-09-20T12:25:34.888Z,99.90
2018-09-20T12:28:03.502Z,99.90
2018-09-20T12:30:31.837Z,99.90
2018-09-20T12:33:00.546Z,99.90
2018-09-20T12:35:28.900Z,99.90
2018-09-20T12:37:57.259Z,99.90
2018-09-20T12:40:25.571Z,99.90
2018-09-20T12:42:54.166Z,99.90
2018-09-20T12:45:22.500Z,99.90
2018-09-20T12:47:50.912Z,99.90
2018-09-20T12:50:19.308Z,99.90
2018-09-20T12:52:47.755Z,99.90
2018-09-20T12:55:16.092Z,99.90
2018-09-20T12:57:44.324Z,99.90
2018-09-20T13:00:12.840Z,99.90
2018-09-20T13:02:41.278Z,99.90
2018-09-20T13:05:09.712Z,99.90
2018-09-20T13:07:37.998Z,99.90
2018-09-20T13:10:06.292Z,99.90
2018-09-20T13:12:34.822Z,99.90
2018-09-20T13:15:03.121Z,99.90
2018-09-20T13:17:31.526Z,99.90
2018-09-20T13:19:59.828Z,99.90
2018-09-20T13:23:31.098Z,99.90
2018-09-20T13:25:59.361Z,99.90
2018-09-20T13:28:27.731Z,99.90
2018-09-20T13:30:55.976Z,99.90
2018-09-20T13:33:24.454Z,99.90
2018-09-20T13:35:52.825Z,99.90
2018-09-20T13:38:21.160Z,99.90
2018-09-20T13:40:49.485Z,99.90
2018-09-20T13:43:18.071Z,99.90
2018-09-20T13:45:46.347Z,99.90
2018-09-20T13:48:14.635Z,99.90
2018-09-20T13:50:42.945Z,99.90
2018-09-20T13:53:12.324Z,99.90
2018-09-20T13:55:40.639Z,99.90
2018-09-20T13:58:08.940Z,99.90
2018-09-20T14:00:37.230Z,99.90
2018-09-20T14:03:05.667Z,99.90
2018-09-20T14:05:34.011Z,99.90
2018-09-20T14:08:02.307Z,99.90
2018-09-20T14:10:30.639Z,99.90
2018-09-20T14:12:59.147Z,99.90
2018-09-20T14:15:27.504Z,99.90
2018-09-20T14:17:55.780Z,99.90
2018-09-20T14:20:24.087Z,99.90
2018-09-20T14:22:52.461Z,99.90
2018-09-20T14:25:20.915Z,99.70
2018-09-20T14:27:49.222Z,99.80
2018-09-20T14:30:17.539Z,99.60
2018-09-20T14:32:45.987Z,99.90
2018-09-20T14:35:14.317Z,99.60
2018-09-20T14:37:42.613Z,99.10
2018-09-20T14:40:10.992Z,99.10
2018-09-20T14:42:39.462Z,99.20
2018-09-20T14:45:07.775Z,99.00
2018-09-20T14:47:36.123Z,99.30
2018-09-20T14:50:40.688Z,99.30
2018-09-20T14:53:09.049Z,99.10
2018-09-20T14:58:39.234Z,99.10
2018-09-20T15:01:07.725Z,99.20
2018-09-20T15:03:36.206Z,99.10
2018-09-20T15:06:04.580Z,99.50
2018-09-20T15:08:33.194Z,99.60
2018-09-20T15:11:01.512Z,99.40
2018-09-20T15:13:29.941Z,99.10
2018-09-20T15:15:58.979Z,99.00
2018-09-20T15:18:27.442Z,99.10
2018-09-20T15:20:55.697Z,99.10
2018-09-20T15:23:24.162Z,98.90
2018-09-20T15:25:52.399Z,99.00
2018-09-20T15:28:20.673Z,98.90
2018-09-20T15:30:48.968Z,99.00
2018-09-20T15:33:17.465Z,99.10
2018-09-20T15:35:46.307Z,99.10
2018-09-20T15:38:14.598Z,99.10
2018-09-20T15:40:42.857Z,99.30
2018-09-20T15:43:11.128Z,99.40
2018-09-20T15:45:39.371Z,99.30
2018-09-20T15:48:07.876Z,99.40
2018-09-20T15:50:36.151Z,99.50
2018-09-20T15:53:05.451Z,98.90
2018-09-20T15:55:33.731Z,99.00
2018-09-20T15:58:02.038Z,99.00
2018-09-20T16:00:30.442Z,99.10
2018-09-20T16:02:58.980Z,98.70
2018-09-20T16:05:27.485Z,98.80
2018-09-20T16:07:55.770Z,98.90
2018-09-20T16:10:24.015Z,98.90
2018-09-20T16:12:52.488Z,99.00
2018-09-20T16:15:20.694Z,98.90
2018-09-20T16:17:48.973Z,99.00
2018-09-20T16:20:17.194Z,99.20
2018-09-20T16:22:45.562Z,99.20
2018-09-20T16:25:13.876Z,99.60
2018-09-20T16:27:42.631Z,99.40
2018-09-20T16:30:42.241Z,99.50
2018-09-20T16:33:33.154Z,99.50
2018-09-20T16:36:14.750Z,99.80
2018-09-20T16:38:49.931Z,99.50
2018-09-20T16:41:22.933Z,99.50
2018-09-20T16:43:51.224Z,99.50
2018-09-20T16:46:19.485Z,99.50
2018-09-20T16:48:47.822Z,99.70
2018-09-20T16:51:16.098Z,99.70
2018-09-20T16:53:46.379Z,99.70
2018-09-20T16:56:14.687Z,99.80
2018-09-20T16:58:50.168Z,99.90
2018-09-20T17:01:19.070Z,99.90
2018-09-20T17:03:47.720Z,99.90
2018-09-20T17:06:16.310Z,99.90
2018-09-20T17:08:45.004Z,99.90
2018-09-20T17:11:13.332Z,99.90
2018-09-20T17:13:41.704Z,99.90
2018-09-20T17:16:10.051Z,99.90
2018-09-20T17:18:38.291Z,99.90
2018-09-20T17:21:07.039Z,99.90
2018-09-20T17:23:35.339Z,99.90
2018-09-20T17:26:03.651Z,99.90
2018-09-20T17:28:32.311Z,99.90
2018-09-20T17:31:00.652Z,99.90
2018-09-20T17:33:28.905Z,99.90
2018-09-20T17:35:57.559Z,99.90
2018-09-20T17:38:26.927Z,99.90
2018-09-20T17:41:00.541Z,99.90
2018-09-20T17:43:33.535Z,99.90
2018-09-20T17:46:01.933Z,99.90
2018-09-20T17:48:30.190Z,99.90
2018-09-20T17:51:00.129Z,99.90
2018-09-20T17:53:29.086Z,99.90
2018-09-20T17:55:59.385Z,99.90
2018-09-20T17:58:28.383Z,99.90
2018-09-20T18:00:56.663Z,99.90
2018-09-20T18:03:24.954Z,99.90
2018-09-20T18:05:53.266Z,99.90
2018-09-20T18:08:21.608Z,99.90
2018-09-20T18:10:49.908Z,99.90
2018-09-20T18:13:18.273Z,99.90
2018-09-20T18:15:46.525Z,99.90
2018-09-20T18:18:14.882Z,99.90
2018-09-20T18:20:43.077Z,99.90
2018-09-20T18:23:11.501Z,99.90
2018-09-20T18:25:39.768Z,99.90
2018-09-20T18:28:08.395Z,99.90
2018-09-20T18:30:36.622Z,99.90
2018-09-20T18:33:05.104Z,99.90
2018-09-20T18:35:33.577Z,99.90
2018-09-20T18:38:01.844Z,99.90
2018-09-20T18:40:30.187Z,99.90
2018-09-20T18:42:58.706Z,99.90
2018-09-20T18:45:26.927Z,99.90
2018-09-20T18:47:55.250Z,99.90
2018-09-20T18:50:23.551Z,99.90
2018-09-20T18:52:51.967Z,99.90
2018-09-20T18:55:20.222Z,99.90
2018-09-20T18:57:48.477Z,99.90
2018-09-20T19:00:17.102Z,99.90
2018-09-20T19:02:45.381Z,99.90
2018-09-20T19:05:13.745Z,99.90
2018-09-20T19:07:41.993Z,99.90
2018-09-20T19:10:10.227Z,99.90
2018-09-20T19:12:38.911Z,99.90
2018-09-20T19:15:08.217Z,99.90
2018-09-20T19:17:36.601Z,99.90
2018-09-20T19:20:05.541Z,99.90
2018-09-20T19:22:37.174Z,99.90
2018-09-20T19:25:05.468Z,99.90
2018-09-20T19:27:33.742Z,99.90
2018-09-20T19:30:01.974Z,99.90
2018-09-20T19:32:31.973Z,99.90
2018-09-20T19:35:00.261Z,99.90
2018-09-20T19:37:28.496Z,99.90
2018-09-20T19:39:58.052Z,99.90
2018-09-20T19:42:27.460Z,99.90
2018-09-20T19:44:55.686Z,99.90
2018-09-20T19:47:24.555Z,99.90
2018-09-20T19:49:52.783Z,99.90
2018-09-20T19:52:21.112Z,99.90
2018-09-20T19:54:49.446Z,99.90
2018-09-20T19:57:18.027Z,99.90
2018-09-20T19:59:47.362Z,99.90
2018-09-20T20:02:17.696Z,99.90
2018-09-20T20:04:45.963Z,99.90
2018-09-20T20:07:14.291Z,99.90
2018-09-20T20:09:42.751Z,99.90
2018-09-20T20:12:11.165Z,99.90
2018-09-20T20:14:39.380Z,99.90
2018-09-20T20:17:07.665Z,99.90
2018-09-20T20:19:35.952Z,99.90
2018-09-20T20:22:04.181Z,99.90
2018-09-20T20:24:32.457Z,99.90
2018-09-20T20:27:00.646Z,99.90
2018-09-20T20:29:28.982Z,99.90
2018-09-20T20:31:57.431Z,99.90
2018-09-20T20:34:26.626Z,99.90
2018-09-20T20:36:54.895Z,99.90
2018-09-20T20:39:23.128Z,99.90
2018-09-20T20:41:51.323Z,99.90
2018-09-20T20:44:19.657Z,99.90
2018-09-20T20:46:47.913Z,99.90
2018-09-20T20:49:16.300Z,99.90
2018-09-20T20:51:44.601Z,99.90
2018-09-20T20:54:14.981Z,99.90
2018-09-20T20:56:43.484Z,99.90
2018-09-20T20:59:11.758Z,99.90
2018-09-20T21:01:40.042Z,99.90
2018-09-20T21:04:10.257Z,99.90
2018-09-20T21:06:38.482Z,99.90
2018-09-20T21:09:08.031Z,99.90
2018-09-20T21:11:42.907Z,99.90
2018-09-20T21:14:11.204Z,99.90
2018-09-20T21:16:40.419Z,99.90
2018-09-20T21:19:08.719Z,99.90
2018-09-20T21:21:36.983Z,99.90
2018-09-20T21:24:05.998Z,99.90
2018-09-20T21:26:34.231Z,99.90
2018-09-20T21:29:02.556Z,99.90
2018-09-20T21:31:30.827Z,99.90
2018-09-20T21:33:59.263Z,99.90
2018-09-20T21:36:27.508Z,99.90
2018-09-20T21:38:57.404Z,99.90
2018-09-20T21:41:25.685Z,99.90
2018-09-20T21:43:53.987Z,99.90
2018-09-20T21:46:22.262Z,99.90
2018-09-20T21:48:50.543Z,99.90
2018-09-20T21:51:19.039Z,99.90
2018-09-20T21:53:47.529Z,99.90
2018-09-20T21:56:15.755Z,99.90
2018-09-20T21:58:44.220Z,99.90
2018-09-20T22:01:14.241Z,99.90
2018-09-20T22:03:42.734Z,99.90
2018-09-20T22:06:11.046Z,99.90
2018-09-20T22:08:39.307Z,99.90
2018-09-20T22:11:07.602Z,99.90
2018-09-20T22:13:36.000Z,99.90
2018-09-20T22:16:04.261Z,99.90
2018-09-20T22:18:32.466Z,99.90
2018-09-20T22:21:00.684Z,99.90
2018-09-20T22:23:28.986Z,99.90
2018-09-20T22:25:57.264Z,99.90
2018-09-20T22:28:25.496Z,99.90
2018-09-20T22:30:53.846Z,99.90
2018-09-20T22:33:22.193Z,99.90
2018-09-20T22:35:50.482Z,99.90
2018-09-20T22:38:18.766Z,99.90
2018-09-20T22:40:47.031Z,99.90
2018-09-20T22:43:19.815Z,99.90
2018-09-20T22:45:48.018Z,99.90
2018-09-20T22:48:16.299Z,99.90
2018-09-20T22:50:44.540Z,99.90
2018-09-20T22:53:13.324Z,99.90
2018-09-20T22:55:41.631Z,99.90
2018-09-20T22:58:09.867Z,99.90
2018-09-20T23:00:38.081Z,99.90
2018-09-20T23:03:07.111Z,99.90
2018-09-20T23:05:35.434Z,99.90
2018-09-20T23:08:03.932Z,99.90
2018-09-20T23:10:32.326Z,99.90
2018-09-20T23:13:00.716Z,99.90
2018-09-20T23:15:30.782Z,99.90
2018-09-20T23:17:59.070Z,99.90
2018-09-20T23:20:27.288Z,99.90
2018-09-20T23:22:55.541Z,99.90
2018-09-20T23:25:24.113Z,99.90
2018-09-20T23:27:52.470Z,99.90
2018-09-20T23:30:20.933Z,99.90
2018-09-20T23:32:49.336Z,99.90
2018-09-20T23:35:17.682Z,99.90
2018-09-20T23:37:46.049Z,99.90
2018-09-20T23:40:14.453Z,99.90
2018-09-20T23:42:43.064Z,99.90
2018-09-20T23:45:11.495Z,99.90
2018-09-20T23:47:40.535Z,99.90
2018-09-20T23:50:09.494Z,99.90
2018-09-20T23:52:37.945Z,99.90
2018-09-20T23:55:07.386Z,99.90
2018-09-20T23:57:36.194Z,99.90
